createdAt,value
2019-02-17T00:01:44.003Z,17.00
2019-02-17T00:04:15.520Z,16.77
2019-02-17T00:06:47.075Z,19.43
2019-02-17T00:09:19.522Z,16.20
2019-02-17T00:11:50.112Z,18.03
2019-02-17T00:14:23.894Z,21.30
2019-02-17T00:16:53.920Z,20.13
2019-02-17T00:19:25.988Z,16.90
2019-02-17T00:21:56.594Z,16.80
2019-02-17T00:24:26.953Z,16.87
2019-02-17T00:26:59.043Z,16.13
2019-02-17T00:29:32.267Z,16.63
2019-02-17T00:32:02.708Z,19.10
2019-02-17T00:34:33.409Z,15.03
2019-02-17T00:37:04.898Z,17.23
2019-02-17T00:39:37.524Z,19.57
2019-02-17T00:42:09.453Z,18.05
2019-02-17T00:44:39.889Z,16.70
2019-02-17T00:47:10.529Z,15.85
2019-02-17T00:49:41.161Z,18.53
2019-02-17T00:52:14.107Z,20.52
2019-02-17T00:54:44.503Z,15.93
2019-02-17T00:57:15.397Z,16.43
2019-02-17T00:59:47.082Z,18.53
2019-02-17T01:02:17.585Z,17.57
2019-02-17T01:04:48.135Z,15.03
2019-02-17T01:07:19.963Z,16.62
2019-02-17T01:09:50.512Z,16.87
2019-02-17T01:12:24.271Z,15.24
2019-02-17T01:14:56.208Z,20.70
2019-02-17T01:17:38.175Z,19.23
2019-02-17T01:20:10.317Z,16.17
2019-02-17T01:22:43.117Z,21.17
2019-02-17T01:25:13.730Z,18.17
2019-02-17T01:27:44.382Z,16.37
2019-02-17T01:30:15.982Z,16.50
2019-02-17T01:32:46.575Z,17.23
2019-02-17T01:35:16.870Z,16.27
2019-02-17T01:37:48.972Z,18.07
2019-02-17T01:40:20.462Z,17.37
2019-02-17T01:42:51.136Z,16.10
2019-02-17T01:45:22.536Z,17.07
2019-02-17T01:47:52.857Z,17.62
2019-02-17T01:50:23.158Z,17.47
2019-02-17T01:52:55.617Z,16.45
2019-02-17T01:55:25.961Z,16.37
2019-02-17T01:57:57.613Z,18.45
2019-02-17T02:00:45.212Z,16.30
2019-02-17T02:03:10.471Z,17.60
2019-02-17T02:05:40.869Z,18.53
2019-02-17T02:08:12.777Z,19.40
2019-02-17T02:10:43.082Z,15.47
2019-02-17T02:13:13.758Z,13.83
2019-02-17T02:15:44.093Z,14.47
2019-02-17T02:18:15.232Z,20.72
2019-02-17T02:20:45.756Z,15.97
2019-02-17T02:23:17.493Z,14.40
2019-02-17T02:25:47.873Z,16.90
2019-02-17T02:28:19.073Z,14.83
2019-02-17T02:30:49.695Z,16.83
2019-02-17T02:33:21.656Z,14.74
2019-02-17T02:35:52.263Z,19.92
2019-02-17T02:38:22.737Z,15.37
2019-02-17T02:40:53.371Z,16.93
2019-02-17T02:43:23.737Z,15.70
2019-02-17T02:45:55.719Z,16.82
2019-02-17T02:48:26.003Z,17.47
2019-02-17T02:50:56.665Z,18.57
2019-02-17T02:53:27.003Z,17.50
2019-02-17T02:55:57.429Z,20.17
2019-02-17T02:58:27.931Z,17.17
2019-02-17T03:00:58.241Z,17.37
2019-02-17T03:03:28.863Z,16.70
2019-02-17T03:06:10.057Z,19.76
2019-02-17T03:08:40.505Z,17.17
2019-02-17T03:11:11.223Z,17.35
2019-02-17T03:13:43.304Z,17.00
2019-02-17T03:16:13.986Z,15.75
2019-02-17T03:18:45.785Z,15.10
2019-02-17T03:21:24.710Z,16.16
2019-02-17T03:23:55.428Z,15.57
2019-02-17T03:26:25.798Z,16.40
2019-02-17T03:28:57.840Z,16.13
2019-02-17T03:31:29.732Z,16.60
2019-02-17T03:34:00.041Z,15.17
2019-02-17T03:36:30.689Z,15.97
2019-02-17T03:39:01.094Z,18.73
2019-02-17T03:41:33.281Z,23.07
2019-02-17T03:44:03.893Z,19.30
2019-02-17T03:46:36.419Z,19.05
2019-02-17T03:49:07.002Z,16.17
2019-02-17T03:51:37.307Z,16.30
2019-02-17T03:54:07.846Z,18.77
2019-02-17T03:56:39.382Z,14.98
2019-02-17T03:59:11.338Z,19.00
2019-02-17T04:01:42.592Z,16.82
2019-02-17T04:04:14.074Z,18.10
2019-02-17T04:06:45.574Z,16.30
2019-02-17T04:09:15.879Z,17.70
2019-02-17T04:11:50.204Z,15.10
2019-02-17T04:14:20.497Z,20.07
2019-02-17T04:16:51.181Z,20.07
2019-02-17T04:19:21.864Z,18.37
2019-02-17T04:21:56.832Z,17.50
2019-02-17T04:24:27.632Z,18.52
2019-02-17T04:27:00.078Z,17.77
2019-02-17T04:29:33.808Z,18.50
2019-02-17T04:32:04.168Z,18.67
2019-02-17T04:34:38.411Z,18.70
2019-02-17T04:37:11.626Z,18.37
2019-02-17T04:39:41.904Z,18.53
2019-02-17T04:42:12.344Z,21.23
2019-02-17T04:44:43.938Z,17.87
2019-02-17T04:47:14.315Z,19.73
2019-02-17T04:49:50.205Z,18.67
2019-02-17T04:52:22.578Z,19.95
2019-02-17T04:54:53.162Z,18.23
2019-02-17T04:57:28.790Z,16.50
2019-02-17T04:59:59.331Z,19.07
2019-02-17T05:02:29.773Z,18.10
2019-02-17T05:05:04.396Z,17.65
2019-02-17T05:07:38.116Z,19.06
2019-02-17T05:10:18.172Z,17.03
2019-02-17T05:12:49.979Z,17.45
2019-02-17T05:15:21.182Z,18.13
2019-02-17T05:17:51.734Z,18.60
2019-02-17T05:20:24.531Z,19.03
2019-02-17T05:22:56.730Z,17.52
2019-02-17T05:25:28.115Z,20.30
2019-02-17T05:28:07.851Z,20.60
2019-02-17T05:30:38.572Z,19.63
2019-02-17T05:33:14.464Z,18.32
2019-02-17T05:35:43.652Z,17.30
2019-02-17T05:38:15.366Z,19.42
2019-02-17T05:40:49.494Z,19.07
2019-02-17T05:43:19.846Z,20.70
2019-02-17T05:45:50.255Z,19.43
2019-02-17T05:48:24.764Z,20.45
2019-02-17T05:50:55.291Z,20.53
2019-02-17T05:53:25.788Z,19.90
2019-02-17T05:55:56.088Z,19.67
2019-02-17T05:58:29.918Z,21.43
2019-02-17T06:01:03.796Z,19.63
2019-02-17T06:03:34.428Z,19.30
2019-02-17T06:06:08.985Z,19.27
2019-02-17T06:08:41.073Z,19.13
2019-02-17T06:11:20.607Z,20.97
2019-02-17T06:13:50.902Z,17.30
2019-02-17T06:16:23.376Z,19.30
2019-02-17T06:18:54.016Z,20.00
2019-02-17T06:21:25.961Z,17.70
2019-02-17T06:23:57.813Z,22.17
2019-02-17T06:26:28.476Z,20.57
2019-02-17T06:28:59.929Z,21.30
2019-02-17T06:31:30.486Z,19.33
2019-02-17T06:34:03.929Z,23.27
2019-02-17T06:36:34.234Z,19.43
2019-02-17T06:39:05.679Z,20.53
2019-02-17T06:41:39.611Z,21.63
2019-02-17T06:44:10.241Z,22.22
2019-02-17T06:46:45.469Z,20.63
2019-02-17T06:49:16.196Z,18.47
2019-02-17T06:51:46.612Z,20.90
2019-02-17T06:54:17.238Z,21.10
2019-02-17T06:57:09.167Z,21.77
2019-02-17T06:59:43.581Z,22.97
2019-02-17T07:02:18.120Z,21.80
2019-02-17T07:05:22.749Z,22.30
2019-02-17T07:07:53.029Z,21.37
2019-02-17T07:10:29.064Z,22.22
2019-02-17T07:13:03.858Z,21.77
2019-02-17T07:15:40.880Z,21.37
2019-02-17T07:18:11.680Z,22.57
2019-02-17T07:20:46.170Z,20.60
2019-02-17T07:23:17.738Z,22.23
2019-02-17T07:25:49.017Z,20.77
2019-02-17T07:28:20.605Z,22.70
2019-02-17T07:30:52.830Z,20.80
2019-02-17T07:33:23.122Z,19.80
2019-02-17T07:35:53.443Z,23.00
2019-02-17T07:38:23.782Z,22.53
2019-02-17T07:40:57.157Z,18.77
2019-02-17T07:43:32.088Z,18.70
2019-02-17T07:46:05.591Z,20.10
2019-02-17T07:48:36.029Z,22.13
2019-02-17T07:51:06.675Z,21.53
2019-02-17T07:53:36.976Z,21.53
2019-02-17T07:56:08.548Z,23.70
2019-02-17T07:58:41.735Z,21.10
2019-02-17T08:01:12.395Z,18.50
2019-02-17T08:03:45.740Z,20.70
2019-02-17T08:06:21.637Z,19.50
2019-02-17T08:08:49.493Z,21.80
2019-02-17T08:11:28.857Z,20.70
2019-02-17T08:14:02.353Z,19.50
2019-02-17T08:16:33.305Z,21.12
2019-02-17T08:19:08.620Z,20.95
2019-02-17T08:21:39.244Z,19.93
2019-02-17T08:24:09.735Z,21.13
2019-02-17T08:26:40.171Z,20.53
2019-02-17T08:29:11.903Z,20.73
2019-02-17T08:31:42.471Z,19.62
2019-02-17T08:34:15.385Z,17.90
2019-02-17T08:36:45.893Z,20.30
2019-02-17T08:39:20.562Z,15.90
2019-02-17T08:41:51.948Z,17.55
2019-02-17T08:44:25.657Z,18.43
2019-02-17T08:46:58.612Z,17.12
2019-02-17T08:49:28.974Z,15.90
2019-02-17T08:52:02.727Z,18.76
2019-02-17T08:54:35.055Z,15.17
2019-02-17T08:57:07.533Z,17.67
2019-02-17T08:59:39.725Z,16.43
2019-02-17T09:02:10.037Z,16.93
2019-02-17T09:04:40.412Z,15.87
2019-02-17T09:07:14.155Z,16.90
2019-02-17T09:09:44.485Z,16.67
2019-02-17T09:12:16.778Z,16.10
2019-02-17T09:14:47.312Z,15.67
2019-02-17T09:17:18.065Z,17.80
2019-02-17T09:19:52.203Z,20.80
2019-02-17T09:22:24.805Z,15.30
2019-02-17T09:24:55.846Z,16.02
2019-02-17T09:27:30.560Z,16.80
2019-02-17T09:30:02.117Z,15.90
2019-02-17T09:32:33.897Z,17.60
2019-02-17T09:35:04.532Z,16.40
2019-02-17T09:37:37.302Z,15.90
2019-02-17T09:40:09.070Z,16.32
2019-02-17T09:42:40.409Z,17.06
2019-02-17T09:45:13.073Z,18.10
2019-02-17T09:47:44.286Z,17.60
2019-02-17T09:50:14.713Z,16.80
2019-02-17T09:52:48.275Z,15.13
2019-02-17T09:55:20.579Z,18.48
2019-02-17T09:57:52.135Z,18.02
2019-02-17T10:00:28.595Z,16.47
2019-02-17T10:03:04.059Z,16.80
2019-02-17T10:05:35.190Z,13.98
2019-02-17T10:08:09.615Z,13.90
2019-02-17T10:10:41.578Z,14.43
2019-02-17T10:13:12.132Z,14.93
2019-02-17T10:15:51.843Z,14.17
2019-02-17T10:18:23.133Z,13.93
2019-02-17T10:20:53.831Z,13.07
2019-02-17T10:23:26.485Z,13.15
2019-02-17T10:25:58.458Z,13.63
2019-02-17T10:28:30.799Z,15.00
2019-02-17T10:31:01.787Z,12.63
2019-02-17T10:33:33.283Z,14.25
2019-02-17T10:36:03.984Z,13.37
2019-02-17T10:38:35.335Z,13.25
2019-02-17T10:41:06.156Z,14.33
2019-02-17T10:43:37.262Z,15.70
2019-02-17T10:46:09.945Z,15.13
2019-02-17T10:48:40.723Z,17.25
2019-02-17T10:51:13.306Z,16.70
2019-02-17T10:53:51.321Z,13.18
2019-02-17T10:56:25.173Z,16.37
2019-02-17T10:58:55.841Z,19.45
2019-02-17T11:01:26.173Z,16.73
2019-02-17T11:04:08.607Z,17.60
2019-02-17T11:06:38.955Z,18.57
2019-02-17T11:09:19.905Z,18.45
2019-02-17T11:11:53.143Z,18.97
2019-02-17T11:14:23.573Z,18.23
2019-02-17T11:16:55.018Z,18.00
2019-02-17T11:19:26.678Z,16.50
2019-02-17T11:21:58.139Z,18.23
2019-02-17T11:24:28.878Z,16.20
2019-02-17T11:27:00.508Z,16.60
2019-02-17T11:29:30.804Z,15.30
2019-02-17T11:32:01.648Z,16.20
2019-02-17T11:34:32.171Z,14.63
2019-02-17T11:37:02.492Z,17.93
2019-02-17T11:39:33.109Z,16.43
2019-02-17T11:42:07.537Z,15.63
2019-02-17T11:44:39.714Z,16.20
2019-02-17T11:47:10.418Z,18.93
2019-02-17T11:49:42.525Z,14.77
2019-02-17T11:52:13.188Z,15.50
2019-02-17T11:54:47.552Z,16.05
2019-02-17T11:57:23.595Z,16.87
2019-02-17T11:59:51.055Z,18.33
2019-02-17T12:02:27.665Z,15.50
2019-02-17T12:05:04.155Z,16.60
2019-02-17T12:07:37.582Z,15.03
2019-02-17T12:10:10.293Z,17.37
2019-02-17T12:12:41.273Z,14.60
2019-02-17T12:15:13.919Z,13.30
2019-02-17T12:17:45.462Z,18.07
2019-02-17T12:20:41.870Z,14.97
2019-02-17T12:23:19.389Z,14.80
2019-02-17T12:25:55.195Z,14.07
2019-02-17T12:28:29.785Z,13.37
2019-02-17T12:31:04.883Z,15.70
2019-02-17T12:33:35.595Z,14.50
2019-02-17T12:36:08.570Z,16.27
2019-02-17T12:39:34.102Z,18.57
2019-02-17T12:41:18.128Z,15.53
2019-02-17T12:43:56.314Z,10.90
2019-02-17T12:46:27.550Z,15.10
2019-02-17T12:48:58.123Z,12.77
2019-02-17T12:51:32.924Z,13.20
2019-02-17T12:54:03.461Z,12.28
2019-02-17T12:56:34.526Z,13.70
2019-02-17T12:59:10.588Z,11.83
2019-02-17T13:01:41.744Z,12.75
2019-02-17T13:04:12.814Z,12.40
2019-02-17T13:06:49.510Z,13.30
2019-02-17T13:09:19.963Z,12.70
2019-02-17T13:11:50.288Z,12.07
2019-02-17T13:14:23.023Z,11.23
2019-02-17T13:16:56.075Z,12.18
2019-02-17T13:19:26.674Z,11.55
2019-02-17T13:21:57.798Z,13.55
2019-02-17T13:24:31.547Z,11.70
2019-02-17T13:27:02.377Z,13.48
2019-02-17T13:29:33.270Z,12.47
2019-02-17T13:32:05.310Z,13.10
2019-02-17T13:34:36.909Z,13.13
2019-02-17T13:37:09.237Z,10.87
2019-02-17T13:39:43.306Z,10.87
2019-02-17T13:42:13.967Z,12.05
2019-02-17T13:44:47.100Z,11.43
2019-02-17T13:47:19.421Z,13.30
2019-02-17T13:49:50.436Z,12.85
2019-02-17T13:52:32.105Z,11.07
2019-02-17T13:55:03.725Z,13.97
2019-02-17T13:57:34.252Z,10.77
2019-02-17T14:00:05.817Z,11.57
2019-02-17T14:02:38.060Z,12.50
2019-02-17T14:05:10.354Z,9.97
2019-02-17T14:07:41.841Z,9.97
2019-02-17T14:10:14.694Z,12.17
2019-02-17T14:12:46.147Z,12.53
2019-02-17T14:15:17.743Z,8.55
2019-02-17T14:17:48.692Z,10.30
2019-02-17T14:20:19.314Z,10.00
2019-02-17T14:22:51.477Z,9.58
2019-02-17T14:25:21.990Z,8.40
2019-02-17T14:27:52.632Z,9.53
2019-02-17T14:30:26.301Z,10.67
2019-02-17T14:32:59.481Z,9.50
2019-02-17T14:35:31.568Z,8.77
2019-02-17T14:38:04.296Z,9.42
2019-02-17T14:40:34.889Z,9.17
2019-02-17T14:43:05.178Z,7.67
2019-02-17T14:45:35.511Z,10.30
2019-02-17T14:48:11.297Z,8.10
2019-02-17T14:50:39.776Z,8.47
2019-02-17T14:53:10.106Z,8.97
2019-02-17T14:55:48.092Z,11.65
2019-02-17T14:58:18.624Z,13.32
2019-02-17T15:00:49.436Z,8.43
2019-02-17T15:03:21.468Z,7.80
2019-02-17T15:05:53.697Z,9.43
2019-02-17T15:08:24.427Z,8.47
2019-02-17T15:10:56.436Z,8.77
2019-02-17T15:13:27.058Z,8.68
2019-02-17T15:15:58.618Z,9.57
2019-02-17T15:18:31.354Z,8.78
2019-02-17T15:21:01.577Z,9.23
2019-02-17T15:23:33.902Z,8.05
2019-02-17T15:26:05.899Z,8.30
2019-02-17T15:28:36.312Z,8.17
2019-02-17T15:31:06.765Z,9.77
2019-02-17T15:33:38.438Z,9.05
2019-02-17T15:36:10.677Z,9.30
2019-02-17T15:38:42.717Z,9.35
2019-02-17T15:41:13.082Z,8.90
2019-02-17T15:43:45.520Z,9.80
2019-02-17T15:46:17.436Z,8.33
2019-02-17T15:48:50.221Z,8.27
2019-02-17T15:51:20.404Z,7.90
2019-02-17T15:53:54.317Z,7.28
2019-02-17T15:56:26.521Z,9.13
2019-02-17T15:58:59.119Z,6.83
2019-02-17T16:01:30.936Z,8.33
2019-02-17T16:04:01.545Z,7.53
2019-02-17T16:06:32.117Z,7.23
2019-02-17T16:09:12.367Z,7.20
2019-02-17T16:11:37.547Z,6.27
2019-02-17T16:14:08.320Z,5.47
2019-02-17T16:16:40.056Z,6.37
2019-02-17T16:19:10.980Z,6.33
2019-02-17T16:21:41.613Z,6.27
2019-02-17T16:24:12.244Z,6.37
2019-02-17T16:26:42.728Z,7.33
2019-02-17T16:29:13.101Z,10.07
2019-02-17T16:31:43.463Z,10.10
2019-02-17T16:34:13.806Z,6.57
2019-02-17T16:36:46.930Z,6.63
2019-02-17T16:39:17.306Z,8.20
2019-02-17T16:41:48.324Z,7.47
2019-02-17T16:44:18.834Z,7.00
2019-02-17T16:46:49.713Z,6.62
2019-02-17T16:49:20.175Z,8.97
2019-02-17T16:51:50.894Z,7.85
2019-02-17T16:54:23.946Z,6.77
2019-02-17T16:56:54.989Z,8.38
2019-02-17T16:59:25.291Z,7.63
2019-02-17T17:01:57.732Z,7.87
2019-02-17T17:04:29.721Z,7.37
2019-02-17T17:07:01.700Z,8.77
2019-02-17T17:09:34.373Z,7.47
2019-02-17T17:12:05.469Z,7.58
2019-02-17T17:14:38.740Z,7.33
2019-02-17T17:17:13.138Z,7.60
2019-02-17T17:19:42.129Z,6.97
2019-02-17T17:22:14.688Z,7.35
2019-02-17T17:24:45.151Z,7.13
2019-02-17T17:27:18.010Z,8.70
2019-02-17T17:30:13.954Z,7.43
2019-02-17T17:32:46.466Z,5.67
2019-02-17T17:35:17.948Z,6.75
2019-02-17T17:37:48.451Z,7.33
2019-02-17T17:40:26.593Z,5.40
2019-02-17T17:42:55.103Z,6.10
2019-02-17T17:45:27.388Z,6.97
2019-02-17T17:48:02.527Z,5.97
2019-02-17T17:50:34.634Z,6.22
2019-02-17T17:53:04.984Z,7.27
2019-02-17T17:55:37.440Z,6.80
2019-02-17T17:58:09.031Z,6.87
2019-02-17T18:00:39.922Z,7.28
2019-02-17T18:03:10.353Z,6.67
2019-02-17T18:05:43.170Z,5.58
2019-02-17T18:08:13.543Z,9.77
2019-02-17T18:10:48.406Z,5.93
2019-02-17T18:13:16.135Z,6.30
2019-02-17T18:15:46.806Z,5.97
2019-02-17T18:18:17.551Z,7.37
2019-02-17T18:20:49.160Z,6.23
2019-02-17T18:23:22.718Z,6.40
2019-02-17T18:25:53.147Z,6.17
2019-02-17T18:28:24.655Z,6.20
2019-02-17T18:30:56.479Z,5.93
2019-02-17T18:33:33.614Z,6.95
2019-02-17T18:36:04.561Z,5.97
2019-02-17T18:38:38.266Z,5.30
2019-02-17T18:41:11.767Z,6.90
2019-02-17T18:43:42.830Z,7.03
2019-02-17T18:46:13.922Z,7.70
2019-02-17T18:48:44.305Z,6.43
2019-02-17T18:51:14.770Z,6.17
2019-02-17T18:53:46.643Z,7.33
2019-02-17T18:56:19.806Z,6.47
2019-02-17T18:58:50.509Z,8.07
2019-02-17T19:01:23.633Z,6.57
2019-02-17T19:03:56.133Z,8.10
2019-02-17T19:06:28.585Z,6.67
2019-02-17T19:08:58.977Z,6.47
2019-02-17T19:11:29.489Z,6.47
2019-02-17T19:14:00.119Z,6.20
2019-02-17T19:16:30.533Z,6.53
2019-02-17T19:19:00.969Z,6.63
2019-02-17T19:21:33.298Z,10.82
2019-02-17T19:24:05.122Z,5.64
2019-02-17T19:26:35.439Z,6.40
2019-02-17T19:29:08.786Z,9.05
2019-02-17T19:31:40.770Z,8.03
2019-02-17T19:34:15.527Z,7.83
2019-02-17T19:36:46.224Z,8.67
2019-02-17T19:39:17.104Z,8.37
2019-02-17T19:41:48.893Z,7.33
2019-02-17T19:44:21.134Z,7.33
2019-02-17T19:46:52.038Z,7.10
2019-02-17T19:49:28.566Z,8.87
2019-02-17T19:51:58.621Z,6.03
2019-02-17T19:54:29.650Z,6.28
2019-02-17T19:57:06.979Z,9.37
2019-02-17T19:59:34.275Z,7.10
2019-02-17T20:02:04.613Z,6.60
2019-02-17T20:04:44.092Z,6.33
2019-02-17T20:07:14.686Z,6.30
2019-02-17T20:09:47.086Z,7.42
2019-02-17T20:12:20.988Z,8.80
2019-02-17T20:15:00.909Z,6.60
2019-02-17T20:17:31.577Z,9.23
2019-02-17T20:20:02.347Z,8.08
2019-02-17T20:22:32.943Z,9.57
2019-02-17T20:25:03.876Z,8.88
2019-02-17T20:27:38.000Z,9.43
2019-02-17T20:30:10.572Z,8.68
2019-02-17T20:32:43.128Z,8.67
2019-02-17T20:35:16.337Z,7.90
2019-02-17T20:37:47.101Z,8.03
2019-02-17T20:40:17.516Z,8.63
2019-02-17T20:42:49.012Z,8.10
2019-02-17T20:45:19.586Z,8.77
2019-02-17T20:47:49.947Z,9.27
2019-02-17T20:50:20.407Z,9.37
2019-02-17T20:52:50.800Z,9.23
2019-02-17T20:55:21.432Z,9.43
2019-02-17T20:57:53.902Z,10.32
2019-02-17T21:00:30.163Z,8.62
2019-02-17T21:03:02.483Z,10.37
2019-02-17T21:05:33.306Z,8.23
2019-02-17T21:08:07.547Z,7.17
2019-02-17T21:10:40.283Z,10.90
2019-02-17T21:13:11.398Z,8.98
2019-02-17T21:15:43.597Z,10.55
2019-02-17T21:18:14.089Z,10.40
2019-02-17T21:20:44.466Z,11.60
2019-02-17T21:23:14.812Z,8.33
2019-02-17T21:25:47.463Z,7.93
2019-02-17T21:28:17.717Z,10.67
2019-02-17T21:30:50.569Z,9.17
2019-02-17T21:33:28.472Z,10.33
2019-02-17T21:36:01.262Z,8.47
2019-02-17T21:38:32.163Z,9.30
2019-02-17T21:41:09.468Z,9.93
2019-02-17T21:43:39.190Z,9.23
2019-02-17T21:46:11.399Z,9.93
2019-02-17T21:48:44.327Z,8.07
2019-02-17T21:51:18.400Z,8.13
2019-02-17T21:53:49.012Z,7.60
2019-02-17T21:56:20.010Z,7.90
2019-02-17T21:58:54.145Z,8.53
2019-02-17T22:01:26.171Z,9.70
2019-02-17T22:03:56.602Z,8.53
2019-02-17T22:06:33.771Z,10.75
2019-02-17T22:09:01.975Z,9.87
2019-02-17T22:11:35.743Z,7.57
2019-02-17T22:14:06.196Z,8.57
2019-02-17T22:16:36.552Z,10.00
2019-02-17T22:19:11.041Z,9.10
2019-02-17T22:21:41.805Z,8.73
2019-02-17T22:24:12.086Z,8.23
2019-02-17T22:26:42.814Z,8.73
2019-02-17T22:29:13.409Z,8.83
2019-02-17T22:31:43.759Z,8.47
2019-02-17T22:34:15.599Z,11.63
2019-02-17T22:36:47.573Z,8.27
2019-02-17T22:39:18.049Z,10.32
2019-02-17T22:41:49.623Z,8.67
2019-02-17T22:44:20.193Z,8.90
2019-02-17T22:46:50.627Z,9.13
2019-02-17T22:49:21.331Z,8.27
2019-02-17T22:51:51.729Z,9.03
2019-02-17T22:54:24.164Z,10.97
2019-02-17T22:56:56.485Z,9.30
2019-02-17T22:59:27.042Z,8.40
2019-02-17T23:01:58.955Z,7.87
2019-02-17T23:04:29.259Z,8.60
2019-02-17T23:06:59.692Z,7.80
2019-02-17T23:09:31.517Z,8.57
2019-02-17T23:12:01.797Z,8.53
2019-02-17T23:14:33.193Z,9.68
2019-02-17T23:17:03.519Z,9.47
2019-02-17T23:19:34.124Z,10.10
2019-02-17T23:22:05.123Z,9.83
2019-02-17T23:24:36.760Z,9.98
2019-02-17T23:27:07.254Z,7.57
2019-02-17T23:29:40.479Z,8.57
2019-02-17T23:32:11.094Z,9.43
2019-02-17T23:34:41.384Z,9.93
2019-02-17T23:37:11.805Z,8.95
2019-02-17T23:39:42.209Z,9.03
2019-02-17T23:42:14.304Z,8.45
2019-02-17T23:44:48.527Z,10.63
2019-02-17T23:47:20.247Z,7.65
2019-02-17T23:49:52.171Z,7.47
2019-02-17T23:52:24.547Z,7.08
2019-02-17T23:54:58.575Z,7.80
2019-02-17T23:57:28.966Z,8.30
2019-02-17T23:59:59.467Z,7.73
